Date,TemperatureHighF,TemperatureAvgF,TemperatureLowF,DewpointHighF,DewpointAvgF,DewpointLowF,HumidityHigh,HumidityAvg,HumidityLow,PressureMaxIn,PressureMinIn,WindSpeedMaxMPH,WindSpeedAvgMPH,GustSpeedMaxMPH,PrecipitationSumIn
2012-1-1,47.3,43.7,41.5,46.8,38.7,28.9,98,84,59,29.07,28.83,12,3,15,0.33
2012-1-2,50.9,42.9,39.7,34.3,31.5,26.2,74,64,51,30.50,30.44,5,1,5,0.00
2012-1-3,53.8,44.3,40.5,40.5,37.0,33.4,85,76,55,30.50,30.41,6,1,6,0.00
2012-1-4,55.0,45.5,43.2,42.6,40.4,37.4,93,83,58,30.50,30.26,5,1,6,0.00
2012-1-5,54.9,47.0,42.3,43.9,40.5,37.2,94,79,60,30.26,29.88,6,1,6,0.00
2012-1-6,59.2,54.1,48.9,40.5,35.3,32.0,72,50,36,29.88,29.46,5,1,9,0.00
2012-1-7,58.3,52.7,45.5,47.1,43.8,33.4,95,73,39,29.88,29.49,8,1,8,0.29
2012-1-8,45.5,41.7,39.9,44.2,40.7,35.6,98,96,83,30.02,29.85,10,2,11,0.50
2012-1-9,41.5,40.7,39.9,39.6,37.2,33.4,95,87,75,30.29,29.99,6,1,6,0.17
2012-1-10,42.8,40.7,39.0,37.4,32.9,27.7,90,74,55,30.32,30.23,12,2,12,0.04
2012-1-11,43.0,41.2,39.7,41.7,38.8,35.1,97,91,81,30.41,30.23,14,3,15,1.23
2012-1-12,46.8,40.7,38.8,37.0,30.3,25.5,93,67,49,30.50,30.41,15,2,15,0.04
2012-1-13,50.0,42.3,37.9,36.9,33.6,29.8,85,72,51,30.41,30.14,8,2,11,0.00
2012-1-14,45.5,40.0,34.9,38.5,34.9,33.1,95,83,65,30.20,30.08,9,1,9,0.41
2012-1-15,47.5,38.3,35.1,35.2,30.9,24.8,92,76,49,30.17,30.11,6,1,7,0.04
2012-1-16,38.3,34.7,31.5,30.4,25.9,19.0,90,71,46,30.32,30.11,6,1,9,0.00
2012-1-17,41.9,33.4,30.4,29.1,22.8,14.5,90,67,42,30.47,30.32,7,1,8,0.00
2012-1-18,38.1,33.8,31.5,26.1,17.9,9.0,77,53,32,30.64,30.47,8,1,10,0.04
2012-1-19,38.1,35.4,32.4,24.3,20.0,13.6,70,54,40,30.64,30.44,8,2,9,0.00
2012-1-20,45.3,42.0,37.9,33.6,26.7,19.2,68,55,45,30.44,30.14,10,2,11,0.13
2012-1-21,48.9,44.3,38.7,42.1,35.2,30.9,86,71,58,30.14,29.79,9,1,11,0.17
2012-1-22,46.0,41.6,37.6,37.4,30.2,24.8,77,64,51,30.14,30.02,9,2,11,0.00
2012-1-23,57.0,47.3,42.8,39.7,36.1,32.0,80,66,47,30.26,30.14,8,1,10,0.00
2012-1-24,52.7,47.9,45.3,39.4,34.3,27.3,79,60,38,30.26,29.96,6,1,6,0.04
2012-1-25,52.5,49.2,45.5,45.9,41.8,38.5,85,76,63,29.96,29.76,4,1,5,0.08
2012-1-26,58.6,46.9,33.1,47.3,40.8,29.3,91,80,58,30.05,29.73,15,2,15,0.29
2012-1-27,33.1,30.2,28.6,30.4,28.0,26.1,98,92,87,30.50,30.05,17,3,17,0.00
2012-1-28,38.5,34.9,32.0,37.4,32.6,28.9,98,91,76,30.56,30.50,12,2,12,0.21
2012-1-29,38.1,35.4,32.2,31.8,28.2,24.1,94,75,60,30.53,30.41,13,4,14,0.00
2012-1-30,32.7,29.6,25.3,30.9,25.6,19.8,96,85,66,30.47,30.44,13,3,13,0.17
2012-1-31,29.1,27.2,25.2,27.3,22.8,17.8,96,84,67,30.44,30.38,10,3,11,0.00
2012-2-1,35.4,30.1,28.0,29.7,25.6,22.1,98,83,67,30.53,30.41,11,2,11,0.00
2012-2-2,33.3,30.2,27.0,26.4,21.7,14.9,81,71,53,30.50,30.38,11,2,11,0.00
2012-2-3,41.2,36.7,32.0,34.5,28.9,24.4,83,73,67,30.53,30.47,12,2,12,0.17
2012-2-4,64.2,49.8,39.2,42.1,35.6,31.3,84,59,41,30.50,30.44,5,1,5,0.00
2012-2-5,66.0,52.9,47.8,36.0,30.5,27.0,49,43,29,30.44,30.29,5,1,6,0.00
2012-2-6,51.8,43.3,41.7,42.6,38.6,26.8,97,85,38,30.29,29.96,14,3,16,0.00
2012-2-7,44.8,42.5,37.2,43.3,41.2,36.7,98,95,88,30.02,29.79,8,3,13,0.58
2012-2-8,37.0,34.3,32.9,36.5,32.4,27.3,98,93,79,30.38,30.02,13,4,15,0.37
2012-2-9,34.9,32.7,31.6,32.7,30.8,27.3,98,93,79,30.38,30.26,11,3,12,0.00
2012-2-10,38.7,33.0,31.1,32.5,29.0,24.6,98,86,63,30.61,30.35,9,2,10,0.17
2012-2-11,44.8,34.5,30.4,31.1,27.1,24.1,84,74,56,30.61,30.47,11,3,12,0.13
2012-2-12,49.1,39.6,34.9,35.2,31.3,27.9,87,73,49,30.50,30.32,10,3,11,0.04
2012-2-13,53.8,44.1,35.8,40.8,33.2,26.8,89,68,36,30.32,29.99,6,1,6,0.08
2012-2-14,46.0,40.6,37.6,43.5,38.3,35.6,98,91,85,30.14,29.99,7,1,9,0.37
2012-2-15,37.6,35.2,33.4,36.0,33.7,32.9,98,94,87,30.02,29.85,10,1,11,0.41
2012-2-16,46.4,40.3,36.1,39.7,35.1,26.6,95,82,61,29.91,29.82,10,1,10,0.08
2012-2-17,36.1,32.7,31.1,33.8,27.1,20.3,98,81,61,30.23,29.88,11,3,17,0.04
2012-2-18,39.2,34.6,31.6,23.7,19.8,14.7,68,55,42,30.38,30.20,9,2,9,0.04
2012-2-19,48.0,37.6,33.3,30.7,25.0,19.0,73,61,44,30.61,30.38,7,1,9,0.08
2012-2-20,56.7,42.1,35.6,27.0,21.9,18.5,60,45,27,30.64,30.58,6,1,6,0.09
2012-2-21,57.6,43.9,39.2,31.1,21.8,18.0,71,42,27,30.64,30.58,6,1,6,0.00
2012-2-22,52.3,42.3,38.1,37.6,34.4,26.2,93,75,41,30.61,30.50,11,2,12,0.00
2012-2-23,53.2,42.7,39.7,36.0,34.2,31.3,84,73,47,30.53,30.23,9,2,9,0.00
2012-2-24,50.4,43.4,39.7,41.2,37.5,33.4,92,80,64,30.23,30.17,6,1,7,0.00
2012-2-25,49.1,46.1,42.3,43.0,39.6,37.9,87,78,71,30.20,30.05,6,1,6,0.00
2012-2-26,56.7,49.4,43.7,48.4,40.0,35.1,90,71,52,30.11,29.94,6,1,7,0.00
2012-2-27,49.1,40.5,34.0,39.6,36.9,32.9,98,88,59,30.08,29.91,19,3,19,0.87
2012-2-28,35.8,33.3,30.0,33.4,26.1,16.9,98,77,50,30.11,30.05,13,2,16,0.17
2012-2-29,37.6,33.9,30.9,25.3,18.4,10.0,76,54,34,30.05,29.88,8,1,10,0.00
2012-3-1,37.0,34.8,32.5,32.7,27.9,23.5,93,76,62,30.35,30.02,11,2,13,0.08
2012-3-2,48.4,39.9,36.0,33.8,27.1,22.5,69,60,44,30.35,30.20,9,2,11,0.04
2012-3-3,44.2,40.6,35.8,40.8,36.0,31.3,95,84,66,30.29,30.08,12,2,13,0.17
2012-3-4,46.9,40.9,36.1,34.7,31.4,27.5,91,70,51,30.38,30.29,9,2,9,0.00
2012-3-5,58.8,43.4,36.9,34.5,29.3,19.6,80,60,25,30.35,30.20,8,2,10,0.04
2012-3-6,51.4,41.2,36.9,33.4,26.6,21.2,77,57,36,30.44,30.26,12,3,12,0.00
2012-3-7,50.9,40.6,35.4,27.3,23.9,17.2,64,53,28,30.53,30.41,12,3,13,0.00
2012-3-8,48.0,42.7,38.1,35.6,27.3,22.1,76,55,42,30.50,30.41,12,2,12,0.00
2012-3-9,50.2,43.2,39.2,39.2,33.7,29.3,83,70,48,30.73,30.47,8,2,9,0.00
2012-3-10,44.1,40.4,37.6,34.7,30.8,25.7,84,69,52,30.73,30.56,9,3,11,0.00
2012-3-11,41.7,38.3,34.5,35.4,31.0,26.4,98,75,63,30.56,29.91,12,3,12,0.37
2012-3-12,39.7,37.4,34.3,39.2,36.4,33.8,98,96,86,30.14,29.82,12,3,12,0.50
2012-3-13,44.8,41.2,39.4,37.6,34.2,32.2,92,76,66,30.23,30.14,13,3,15,0.00
2012-3-14,51.6,43.6,40.3,36.9,32.7,28.6,76,66,43,30.32,30.17,9,2,12,0.00
2012-3-15,45.0,41.0,35.6,41.5,36.5,33.3,92,85,70,30.47,30.29,9,1,12,0.08
2012-3-16,50.9,40.2,35.2,34.7,24.7,13.3,92,58,28,30.61,30.47,12,1,12,0.04
2012-3-17,60.1,46.3,39.7,29.8,25.4,21.0,67,45,26,30.64,30.58,8,1,10,0.00
2012-3-18,67.5,52.0,43.7,38.8,32.0,26.4,70,48,25,30.61,30.53,8,1,8,0.00
2012-3-19,68.5,54.8,48.0,42.8,38.7,33.6,73,56,34,30.58,30.53,8,2,9,0.00
2012-3-20,61.0,51.4,46.6,50.0,44.6,40.8,91,78,50,30.70,30.53,11,1,11,0.00
2012-3-21,66.0,52.1,43.2,48.6,41.7,34.9,94,69,44,30.70,30.56,6,1,7,0.00
2012-3-22,65.1,55.1,47.8,41.7,35.2,28.2,65,48,32,30.64,30.56,9,1,11,0.00
2012-3-23,70.2,56.7,49.8,41.9,37.2,33.1,65,49,30,30.61,30.44,6,1,6,0.00
2012-3-24,72.7,58.4,49.3,45.1,36.2,28.4,72,46,24,30.44,30.35,5,1,6,0.00
2012-3-25,72.5,58.3,49.3,44.8,35.6,27.7,76,46,22,30.41,30.29,10,2,10,0.00
2012-3-26,57.6,52.3,46.4,44.6,34.5,28.6,74,51,36,30.44,30.23,15,2,15,0.00
2012-3-27,57.2,47.5,43.0,33.3,25.7,17.2,64,44,25,30.50,30.26,9,2,9,0.00
2012-3-28,57.9,49.6,46.6,37.9,32.7,26.2,62,52,42,30.35,30.20,7,2,9,0.00
2012-3-29,68.2,52.6,46.0,44.1,36.0,30.0,81,55,28,30.32,30.08,11,2,11,0.00
2012-3-30,55.8,52.2,48.4,49.5,39.8,32.9,92,64,46,30.08,29.85,10,2,12,0.41
2012-3-31,67.3,52.9,46.2,43.0,36.0,28.9,84,55,29,30.08,29.96,9,1,10,0.00
2012-4-1,63.3,53.4,41.9,45.3,39.9,35.2,98,63,46,30.14,29.88,17,3,17,0.46
2012-4-2,61.5,46.5,37.9,46.2,35.0,23.2,97,69,35,30.29,30.14,10,2,10,0.25
2012-4-3,68.0,53.1,43.5,43.7,35.7,28.6,80,54,33,30.35,30.26,6,1,6,0.00
2012-4-4,73.4,61.2,52.3,44.1,37.5,32.9,63,43,25,30.35,30.23,7,1,7,0.00
2012-4-5,75.9,64.5,57.6,47.8,41.4,34.0,66,45,24,30.26,30.11,6,1,6,0.00
2012-4-6,77.2,65.5,59.9,49.6,43.4,38.3,69,45,32,30.14,29.91,8,1,8,0.00
2012-4-7,79.5,63.2,57.0,53.2,48.9,41.5,81,62,29,29.96,29.85,6,1,6,0.00
2012-4-8,77.2,64.8,56.7,49.5,43.9,34.7,64,48,29,29.88,29.64,10,2,13,0.00
2012-4-9,57.0,46.9,43.7,48.6,43.8,41.4,98,90,58,29.96,29.67,10,3,12,0.75
2012-4-10,45.1,44.5,42.8,42.6,40.0,36.0,94,85,72,30.11,29.96,11,3,13,0.17
2012-4-11,58.5,46.9,42.6,47.5,41.8,38.7,96,83,57,30.17,30.05,5,1,6,0.08
2012-4-12,70.9,54.9,45.3,48.7,41.8,37.6,88,65,33,30.08,29.96,7,1,8,0.00
2012-4-13,74.5,60.9,52.5,52.0,43.4,37.4,79,55,30,30.08,29.91,8,1,8,0.00
2012-4-14,71.2,62.0,57.9,58.3,53.1,45.7,96,74,44,29.91,29.73,6,1,6,1.20
2012-4-15,68.4,59.9,56.8,54.9,47.0,41.2,87,63,41,29.96,29.73,12,2,12,0.00
2012-4-16,78.8,63.2,55.9,50.4,46.2,43.2,74,55,32,30.11,29.94,9,2,10,0.04
2012-4-17,74.7,67.3,59.4,47.8,41.5,33.4,65,41,23,30.11,29.91,6,1,7,0.00
2012-4-18,76.6,63.5,55.9,50.5,40.7,29.8,81,46,20,29.91,29.37,18,2,18,0.29
2012-4-19,71.1,58.1,53.6,53.1,49.1,40.6,96,75,39,29.96,29.49,11,2,11,0.08
2012-4-20,72.9,63.5,57.4,46.0,41.9,37.6,65,46,33,29.99,29.96,9,2,10,0.00
2012-4-21,73.9,61.4,57.6,49.8,45.3,41.9,72,56,41,30.08,29.94,9,1,10,0.04
2012-4-22,76.5,61.5,55.0,52.9,44.8,37.0,78,57,26,30.23,30.08,7,1,7,0.00
2012-4-23,79.7,64.2,55.8,48.7,38.6,27.5,72,42,17,30.26,30.17,7,1,7,0.00
2012-4-24,74.1,65.3,58.1,46.9,41.9,37.9,55,43,32,30.20,30.14,6,1,6,0.00
2012-4-25,91.4,72.5,61.5,48.0,41.6,33.3,55,36,15,30.20,30.05,5,0,5,0.00
2012-4-26,76.5,65.9,59.4,44.1,38.5,34.0,49,37,24,30.29,30.11,9,2,12,0.00
2012-4-27,71.6,62.6,54.9,51.4,42.4,36.5,86,49,33,30.32,30.26,12,2,12,0.04
2012-4-28,72.7,59.2,53.2,54.5,50.7,47.3,92,75,43,30.29,30.23,9,2,10,0.04
2012-4-29,72.1,58.2,53.8,53.4,51.2,46.6,95,79,42,30.29,30.23,10,2,10,0.00
2012-4-30,70.0,59.4,53.6,56.8,52.2,49.8,92,78,51,30.23,30.17,10,2,12,0.00
2012-5-1,76.5,60.7,52.3,56.3,49.0,41.9,93,69,32,30.26,30.17,11,2,11,0.00
2012-5-2,70.2,62.5,54.7,57.7,51.4,44.1,90,68,50,30.17,30.05,10,2,10,0.00
2012-5-3,68.4,59.1,54.5,56.3,53.1,51.4,91,81,62,30.05,29.94,9,1,9,0.00
2012-5-4,73.0,64.3,57.4,59.2,55.9,53.6,92,75,57,29.99,29.94,5,1,5,0.00
2012-5-5,81.1,67.0,58.5,58.6,53.0,45.1,92,65,30,30.08,29.96,6,1,6,0.00
2012-5-6,82.2,68.9,62.4,61.2,53.0,44.8,84,59,30,30.17,30.05,6,1,6,0.00
2012-5-7,80.6,70.1,63.9,59.4,52.3,44.4,76,55,32,30.23,30.17,6,1,6,0.00
2012-5-8,80.1,68.2,58.6,57.9,51.2,43.7,83,57,30,30.20,30.14,11,2,12,0.00
2012-5-9,66.6,61.2,57.9,55.4,54.5,53.4,89,79,64,30.32,30.20,11,2,11,0.00
2012-5-10,71.1,63.2,60.4,58.3,55.6,54.0,83,76,58,30.38,30.32,6,2,13,0.00
2012-5-11,71.6,64.5,60.4,61.3,58.2,55.4,88,80,67,30.35,30.26,6,1,6,0.00
2012-5-12,76.5,64.8,61.7,61.2,58.6,54.7,90,81,52,30.26,30.08,9,1,9,0.00
2012-5-13,66.2,62.5,60.6,60.6,58.1,55.8,92,86,79,30.08,30.02,8,1,8,0.00
2012-5-14,63.9,60.6,57.0,61.0,53.4,50.0,93,77,66,30.17,30.05,13,2,13,0.00
2012-5-15,76.6,63.4,53.6,61.3,52.7,46.9,92,70,37,30.08,29.88,16,1,16,0.29
2012-5-16,73.0,63.2,59.9,58.5,53.9,50.0,86,72,52,30.02,29.94,11,1,11,0.13
2012-5-17,77.2,66.4,59.2,54.9,48.9,41.5,78,56,33,30.02,29.91,12,2,13,0.00
2012-5-18,74.1,63.4,58.5,61.0,57.4,51.8,98,82,57,30.05,29.91,11,2,12,1.41
2012-5-19,71.6,62.0,57.2,61.5,56.8,54.3,98,84,60,30.17,30.05,9,1,10,0.00
2012-5-20,62.6,60.8,59.4,59.5,57.2,54.3,94,88,82,30.17,30.11,5,0,6,0.04
2012-5-21,80.6,65.4,58.5,63.0,56.8,48.6,97,76,40,30.20,30.11,6,1,6,0.00
2012-5-22,93.6,73.1,61.3,60.1,52.9,40.3,84,55,17,30.14,29.88,6,1,9,0.00
2012-5-23,81.3,69.9,63.7,57.6,50.9,42.1,71,52,28,30.08,29.94,6,1,6,0.00
2012-5-24,81.3,68.1,63.1,56.1,50.7,37.4,75,57,23,30.08,29.99,9,1,11,0.00
2012-5-25,72.3,64.0,59.2,60.1,56.5,52.9,93,77,61,30.17,29.96,9,2,11,0.12
2012-5-26,76.5,63.8,59.2,59.0,54.6,47.5,94,75,41,30.26,30.17,8,1,8,0.04
2012-5-27,77.4,65.3,57.6,60.3,55.0,52.7,87,71,47,30.23,30.11,8,1,10,0.00
2012-5-28,72.0,63.7,61.3,61.9,58.0,54.3,92,82,58,30.14,29.99,10,1,10,0.21
2012-5-29,77.0,66.0,60.3,59.5,53.4,42.4,87,66,35,30.11,30.05,7,2,7,0.00
2012-5-30,83.7,68.0,63.0,60.3,54.1,44.8,82,63,29,30.20,30.11,8,1,9,0.00
2012-5-31,84.0,69.6,63.1,60.1,53.8,45.0,79,59,30,30.23,30.17,6,1,11,0.00
2012-6-1,87.1,70.8,64.0,59.0,52.0,46.0,76,53,26,30.26,30.17,6,1,7,0.00
2012-6-2,89.6,73.9,66.7,60.6,53.4,41.0,75,52,20,30.32,30.20,7,-23,7,0.00
2012-6-3,92.1,77.1,68.5,60.8,53.6,43.2,68,46,22,30.29,30.17,8,-16,8,0.00
2012-6-4,93.0,77.4,68.5,59.7,50.3,39.4,61,41,18,30.20,30.02,6,-58,6,0.00
2012-6-5,96.1,79.9,70.7,64.2,54.4,42.8,78,45,17,30.02,29.88,8,-24,8,0.00
2012-6-6,81.1,74.3,67.5,62.2,55.4,50.0,75,52,40,30.02,29.88,9,1,9,0.12
2012-6-7,82.0,70.0,63.9,60.8,50.6,42.4,82,53,29,30.14,30.02,8,-31,9,0.00
2012-6-8,88.7,73.3,64.6,53.2,46.8,38.5,64,41,19,30.23,30.14,9,-52,9,0.00
2012-6-9,88.0,73.1,65.8,60.8,55.7,48.9,76,56,29,30.26,30.17,8,-108,9,0.00
2012-6-10,84.4,73.4,66.6,64.2,60.9,58.1,82,66,43,30.20,29.99,11,-106,11,0.00
2012-6-11,93.2,75.6,66.2,66.6,62.4,57.9,88,66,32,30.05,29.91,5,-332,6,0.00
2012-6-12,98.8,82.2,72.9,64.2,55.5,41.5,70,44,16,29.96,29.91,6,-10,6,0.00
2012-6-13,98.8,84.0,74.5,61.7,54.7,43.9,60,39,19,29.99,29.91,4,1,6,0.00
2012-6-14,90.3,81.5,73.6,65.3,58.2,49.5,75,46,29,30.11,29.91,11,2,11,0.00
2012-6-15,88.9,77.1,72.1,68.7,64.8,55.4,86,68,33,30.23,30.11,13,2,13,0.00
2012-6-16,89.6,76.8,71.2,68.2,61.0,45.7,88,62,24,30.35,30.20,17,3,17,0.00
2012-6-17,84.9,74.2,68.2,62.8,56.0,44.8,79,55,32,30.32,30.26,14,4,14,0.00
2012-6-18,87.6,74.7,67.6,65.7,58.9,49.1,81,61,32,30.29,30.17,14,4,19,0.00
2012-6-19,87.1,75.9,69.1,65.3,60.4,52.7,81,61,37,30.17,30.05,15,4,15,0.00
2012-6-20,89.4,77.5,71.6,63.5,57.7,44.2,74,53,27,30.11,30.02,19,4,19,0.00
2012-6-21,88.5,76.0,68.9,63.9,57.7,47.1,80,56,29,30.05,29.96,16,3,17,0.00
2012-6-22,91.4,78.3,69.6,65.8,59.2,50.7,86,56,27,30.08,29.99,11,2,13,0.00
2012-6-23,92.7,80.5,72.7,71.6,64.3,56.5,88,60,36,30.17,30.05,8,2,9,0.00
2012-6-24,92.3,79.9,73.0,70.3,65.8,53.6,86,65,31,30.14,30.08,11,3,11,0.00
2012-6-25,91.6,79.7,73.9,70.7,66.1,58.5,87,66,36,30.14,29.99,10,2,10,0.00
2012-6-26,90.9,79.1,72.1,69.3,63.3,52.0,85,61,31,30.08,29.96,11,2,13,0.00
2012-6-27,82.9,74.3,70.2,69.8,62.8,50.5,94,70,37,30.14,30.08,11,2,11,0.42
2012-6-28,86.7,74.5,68.0,61.3,54.4,46.2,75,52,26,30.20,30.11,9,2,11,0.00
2012-6-29,90.1,75.6,67.6,59.4,50.7,39.2,68,45,18,30.17,30.11,10,2,10,0.00
2012-6-30,88.0,76.1,69.4,62.1,55.5,47.1,67,50,30,30.23,30.17,12,2,13,0.00
2012-7-1,87.1,75.4,68.5,58.8,51.9,44.8,62,46,29,30.23,30.17,13,3,13,0.00
2012-7-2,87.3,76.0,69.6,60.8,54.1,45.7,66,49,26,30.26,30.17,13,3,14,0.00
2012-7-3,89.1,76.8,69.6,66.7,60.4,54.1,79,59,36,30.23,30.14,10,2,12,0.00
2012-7-4,91.8,77.9,70.9,69.6,58.7,46.4,86,56,25,30.14,29.99,5,1,6,0.00
2012-7-5,94.8,81.1,73.2,68.0,54.2,45.7,68,41,24,30.02,29.96,6,2,7,0.00
2012-7-6,90.3,79.4,74.1,70.5,64.7,56.1,85,63,34,30.05,29.99,10,2,11,0.00
2012-7-7,97.0,81.4,72.7,70.7,62.9,46.2,83,58,20,30.05,29.94,9,1,9,0.00
2012-7-8,90.5,81.0,75.7,71.6,66.2,59.2,82,62,39,29.99,29.94,7,2,10,0.00
2012-7-9,92.7,80.9,73.9,70.3,66.2,59.2,82,63,38,30.02,29.96,8,2,8,0.00
2012-7-10,97.9,83.3,74.8,70.7,62.5,45.5,82,55,20,30.05,29.96,6,1,6,0.00
2012-7-11,97.9,85.5,77.2,67.8,52.9,39.0,60,36,16,30.08,29.99,6,1,8,0.00
2012-7-12,98.4,85.4,74.5,67.8,56.5,43.0,78,43,17,30.08,29.96,6,1,6,0.00
2012-7-13,93.4,84.9,79.3,70.0,62.2,52.5,72,48,29,30.05,29.96,11,2,11,0.00
2012-7-14,95.2,83.6,75.9,73.2,66.4,56.1,84,59,28,30.11,29.99,9,2,10,0.00
2012-7-15,95.5,83.2,75.2,70.7,65.2,54.9,82,57,30,30.08,29.96,9,2,10,0.00
2012-7-16,96.6,82.7,75.0,72.3,66.8,59.7,80,61,33,29.99,29.91,9,1,10,0.00
2012-7-17,86.9,80.1,75.7,73.2,67.1,62.2,84,65,47,30.11,27.87,10,3,14,0.00
2012-7-18,75.7,74.8,73.9,63.1,62.1,61.3,65,64,64,30.08,30.08,7,3,9,0.00
2012-7-22,91.8,80.6,72.9,71.6,66.2,59.5,84,64,35,29.96,29.91,6,2,11,0.00
2012-7-23,89.1,84.2,75.2,74.3,70.8,65.7,88,65,51,30.02,29.94,12,2,12,0.00
2012-7-24,92.7,82.8,77.0,75.2,71.5,63.3,87,70,40,30.05,29.99,10,2,10,0.00
2012-7-25,97.0,83.3,77.5,76.1,72.2,66.7,86,71,39,30.02,29.88,9,2,10,0.00
2012-7-26,93.6,84.2,80.1,74.1,71.1,65.5,79,66,42,29.96,29.85,11,2,12,0.00
2012-7-27,93.9,83.8,77.4,74.1,69.8,60.8,85,65,38,29.91,29.85,9,-48,9,0.00
2012-7-28,97.0,84.1,77.7,73.6,67.4,52.2,82,60,24,29.94,29.85,11,2,11,0.00
2012-7-29,95.2,84.4,79.5,72.5,68.2,60.1,77,60,34,29.96,29.91,10,1,10,0.00
2012-7-30,95.4,81.4,76.8,74.5,69.1,54.5,84,69,27,29.96,29.91,10,1,10,0.00
2012-7-31,92.7,83.8,77.7,72.3,63.4,52.0,81,53,29,30.02,29.91,10,2,12,0.00
2012-8-1,88.3,77.8,70.9,63.9,56.5,42.6,73,49,26,30.02,29.96,7,1,10,0.08
2012-8-2,88.3,79.2,72.7,69.1,61.9,51.4,70,56,40,30.02,29.96,8,1,9,0.00
2012-8-3,89.1,79.9,74.8,72.5,67.5,63.0,80,67,44,30.05,29.99,10,1,10,0.00
2012-8-4,93.6,80.0,75.0,72.9,67.4,55.9,83,67,29,30.05,29.99,5,1,11,0.00
2012-8-5,95.4,82.9,75.6,73.0,65.3,52.0,81,59,24,30.11,30.02,8,1,9,0.00
2012-8-6,98.4,83.1,77.0,74.1,68.1,51.8,87,65,22,30.11,30.02,5,1,10,0.00
2012-8-7,98.1,85.5,77.9,75.6,67.0,53.4,89,59,24,30.11,29.99,9,1,9,0.00
2012-8-8,94.5,84.1,77.4,75.7,70.3,54.7,93,66,35,30.11,30.02,9,2,11,0.00
2012-8-9,81.3,79.4,77.9,74.1,71.0,64.8,85,76,60,30.11,30.05,8,1,10,0.00
2012-8-10,92.3,80.1,74.5,67.6,62.7,52.9,74,58,28,30.08,29.99,8,2,13,0.00
2012-8-11,88.9,80.8,75.9,69.8,65.0,58.6,76,60,39,29.99,29.94,11,2,14,0.00
2012-8-12,86.7,75.9,68.9,70.0,66.3,60.8,91,73,49,30.02,29.88,15,2,15,0.70
2012-8-13,89.1,75.7,68.0,63.7,55.2,40.5,81,54,19,30.11,30.02,6,1,6,0.00
2012-8-14,91.8,78.6,71.1,52.0,47.3,38.5,47,34,20,30.11,30.05,6,1,7,0.00
2012-8-15,91.2,79.1,71.2,55.9,47.8,40.1,47,34,19,30.08,30.02,8,1,10,0.00
2012-8-16,91.9,80.4,73.8,56.1,46.6,37.9,49,31,19,30.11,30.02,8,2,9,0.00
2012-8-17,89.4,78.8,70.9,63.9,54.6,45.1,63,45,22,30.17,30.08,11,2,11,0.00
2012-8-18,86.4,76.5,71.6,61.5,56.6,49.6,68,52,30,30.23,30.14,11,2,13,0.00
2012-8-19,85.5,75.1,71.2,61.0,56.8,51.1,63,54,32,30.29,30.23,12,2,12,0.00
2012-8-20,86.0,75.9,70.9,59.5,54.6,47.7,64,49,28,30.32,30.23,11,2,13,0.00
2012-8-21,92.7,78.9,70.2,61.7,51.3,40.1,66,41,18,30.26,30.17,9,2,9,0.00
2012-8-22,95.4,83.0,73.9,54.5,48.9,42.4,43,31,20,30.20,30.14,10,2,10,0.00
2012-8-23,97.5,80.5,72.0,67.8,52.2,38.1,80,42,13,30.20,30.08,6,1,11,0.00
2012-8-24,93.9,81.7,74.7,66.9,53.7,39.4,66,41,18,30.11,30.05,10,2,10,0.00
2012-8-25,93.9,80.2,73.2,71.1,64.4,49.8,79,61,25,30.08,29.99,10,2,13,0.00
2012-8-26,93.4,81.3,75.6,71.6,67.9,60.8,80,65,38,29.99,29.88,7,2,8,0.00
2012-8-27,90.3,79.0,73.6,71.2,65.9,55.4,84,66,39,29.96,29.82,7,1,13,0.00
2012-8-28,78.4,70.8,66.4,64.6,58.2,49.3,90,66,41,30.20,29.94,11,2,16,0.83
2012-8-29,84.9,71.8,65.3,56.5,48.3,37.0,70,46,20,30.26,30.20,9,1,10,0.00
2012-8-30,81.9,70.7,64.0,54.5,46.6,40.6,60,43,24,30.26,30.17,11,2,15,0.00
2012-8-31,81.7,72.0,66.9,58.8,54.5,50.0,66,55,39,30.20,30.14,9,2,12,0.00
2012-9-1,83.5,73.2,67.5,60.6,56.8,52.2,70,58,38,30.26,30.14,11,2,14,0.00
2012-9-2,81.1,72.4,69.1,60.3,58.3,54.1,71,62,47,30.29,30.23,8,2,12,0.00
2012-9-3,81.7,72.4,67.1,59.7,57.0,53.1,69,59,46,30.26,30.11,12,2,12,0.00
2012-9-4,84.6,73.4,67.8,65.1,59.8,55.0,75,63,42,30.11,30.05,11,2,13,0.00
2012-9-5,83.1,74.7,71.4,65.1,63.2,60.1,79,68,48,30.05,29.99,10,2,11,0.00
2012-9-6,85.1,75.1,70.9,66.9,63.5,59.0,80,68,43,30.02,29.94,9,1,11,0.00
2012-9-7,80.1,73.3,70.2,65.3,62.7,52.7,81,70,42,30.11,29.96,8,2,13,0.00
2012-9-8,81.0,71.0,66.7,61.7,48.7,42.8,75,46,29,30.14,30.08,12,3,15,0.00
2012-9-9,82.9,71.8,66.4,61.7,53.8,48.9,73,54,32,30.14,30.08,9,2,11,0.00
2012-9-10,81.9,71.4,66.9,57.9,53.1,47.1,65,53,32,30.23,30.14,11,2,13,0.00
2012-9-11,79.3,70.4,66.9,57.6,52.4,46.2,69,54,32,30.17,30.05,15,3,15,0.00
2012-9-12,79.5,70.2,64.8,59.5,54.1,50.0,69,57,41,30.05,29.88,11,2,12,0.00
2012-9-13,85.1,71.6,66.2,60.8,55.0,47.5,71,57,30,29.91,29.85,5,1,5,0.00
2012-9-14,93.0,75.7,66.7,61.5,51.9,38.1,79,49,17,29.99,29.91,5,1,7,0.00
2012-9-15,94.1,79.2,70.7,62.6,51.7,41.2,72,41,18,29.96,29.82,6,1,7,0.00
2012-9-16,84.2,77.1,72.5,64.9,55.4,43.0,75,49,29,29.88,29.79,15,4,17,0.00
2012-9-17,82.8,74.0,71.1,68.2,65.4,59.2,89,75,46,29.91,29.82,10,2,11,0.00
2012-9-18,79.2,72.2,69.6,69.4,66.3,63.1,92,82,63,29.94,29.85,12,2,12,0.08
2012-9-20,82.6,70.7,66.2,64.0,58.9,52.7,83,68,40,29.91,29.85,5,1,6,0.00
2012-9-21,69.6,62.8,58.8,60.6,54.9,45.7,94,76,57,30.05,29.85,10,1,10,0.37
2012-9-22,75.6,63.6,57.7,47.7,44.6,40.3,69,51,32,30.08,30.02,6,1,9,0.00
2012-9-23,82.4,67.4,59.9,55.2,47.7,42.6,71,51,30,30.11,30.02,8,1,9,0.00
2012-9-24,85.5,69.3,61.2,61.3,53.1,45.5,81,57,31,30.05,29.85,4,1,4,0.00
2012-9-25,88.7,72.1,65.3,66.0,52.8,37.4,87,56,19,29.88,29.82,4,1,6,0.00
2012-9-26,90.1,74.7,68.2,62.8,51.7,43.0,76,46,25,29.94,29.82,5,1,6,0.00
2012-9-27,84.2,72.6,68.5,69.3,63.0,55.6,92,74,41,29.99,29.94,13,-152,13,0.00
2012-9-28,82.2,72.6,68.7,68.5,62.6,54.5,91,72,41,29.99,29.94,7,-670,9,0.00
2012-9-29,81.3,71.3,67.1,66.2,61.9,57.7,88,73,48,30.05,29.96,9,-451,10,0.00
2012-9-30,82.0,72.7,68.7,64.9,62.1,57.9,82,70,47,29.99,29.94,10,2,11,0.00
2012-10-1,81.0,71.6,68.0,64.9,63.1,61.0,84,75,53,30.02,29.94,10,1,11,0.00
2012-10-2,82.8,71.8,67.6,67.6,64.4,62.6,89,78,54,29.96,29.85,6,0,7,0.00
2012-10-3,84.4,73.3,68.4,66.6,61.5,54.3,86,68,39,29.85,29.76,4,1,5,0.00
2012-10-4,78.4,71.1,68.0,66.9,61.7,52.9,91,74,47,29.82,29.76,9,1,10,0.00
2012-10-5,80.6,70.3,66.6,64.9,60.7,55.0,84,73,44,29.94,29.79,6,1,7,0.00
2012-10-6,79.2,70.1,66.0,67.8,60.6,55.0,92,73,47,29.96,29.91,9,2,9,0.00
2012-10-7,83.5,69.6,64.6,66.9,59.2,52.5,86,71,40,29.91,29.64,5,1,6,0.00
2012-10-8,73.0,67.2,61.7,64.8,58.0,48.2,89,73,53,29.79,29.58,11,2,11,0.08
2012-10-9,73.0,62.8,59.4,48.6,42.1,37.8,62,47,31,29.82,29.70,9,3,10,0.00
2012-10-10,75.6,63.5,57.4,53.1,46.3,41.4,69,55,35,29.70,29.64,6,2,8,0.00
2012-10-11,69.8,64.5,61.2,54.9,50.1,45.3,72,60,42,29.73,29.61,6,1,6,0.00
2012-10-12,78.8,66.0,60.6,58.5,50.1,37.8,82,59,25,29.82,29.73,4,0,5,0.00
2012-10-13,81.7,68.1,61.7,52.5,47.2,40.3,69,49,24,29.76,29.67,5,0,6,0.00
2012-10-14,84.6,71.0,65.1,52.5,48.3,42.8,54,45,30,29.67,29.58,6,0,6,0.00
2012-10-15,87.3,73.5,68.2,59.0,52.5,46.9,71,49,29,29.64,29.61,6,0,6,0.00
2012-10-16,85.6,73.4,68.4,60.8,52.1,46.8,70,48,31,29.70,29.64,5,0,6,0.00
2012-10-17,81.9,72.3,68.4,65.7,56.3,49.5,77,58,37,29.70,29.64,9,1,10,0.00
2012-10-18,78.1,69.9,65.1,60.6,53.3,44.6,78,57,32,29.76,29.70,10,2,10,0.00
2012-10-19,75.4,65.3,61.3,56.8,50.9,42.4,78,61,34,29.73,29.61,9,2,11,0.00
2012-10-20,67.5,62.3,59.9,56.3,51.0,44.2,84,67,45,29.61,29.46,7,1,9,0.00
2012-10-21,73.2,64.1,58.8,62.4,55.1,46.4,88,74,43,29.46,29.37,11,1,11,0.04
2012-10-22,71.1,67.4,66.0,63.3,62.1,59.4,90,83,67,29.37,29.31,11,3,11,0.00
2012-10-23,67.5,64.2,60.6,63.3,58.4,53.4,91,82,63,29.37,29.31,9,2,9,0.00
2012-10-24,66.6,62.6,61.3,59.9,54.7,49.8,93,76,58,29.37,29.31,11,3,11,0.08
2012-10-25,71.8,64.1,60.4,54.3,48.6,45.3,77,58,42,29.34,29.20,6,1,8,0.00
2012-10-26,72.0,62.2,58.3,57.9,54.3,50.5,86,76,53,29.20,29.14,6,1,7,0.00
2012-10-27,74.1,64.7,58.6,56.5,50.8,45.9,86,63,40,29.17,29.05,6,0,6,0.00
2012-10-28,75.6,70.9,67.5,54.0,50.8,46.8,61,49,37,29.11,29.02,6,1,7,0.00
2012-10-29,74.5,70.3,65.1,53.6,49.5,44.4,57,48,36,29.08,28.96,9,0,13,0.00
2012-10-30,72.5,62.4,57.6,56.3,48.6,38.1,73,62,32,29.20,28.93,15,2,17,1.04
2012-10-31,72.9,61.1,55.4,53.4,49.3,44.4,78,66,44,29.26,29.17,7,1,7,0.00
2012-11-1,73.8,64.3,57.0,53.4,49.1,44.4,81,60,37,29.26,29.05,3,0,4,0.00
2012-11-2,73.6,67.1,63.0,59.4,54.3,46.2,86,65,45,29.08,29.02,7,0,9,0.50
2012-11-3,70.7,66.1,63.0,63.5,59.2,51.4,94,79,67,29.29,29.08,5,1,6,0.00
2012-11-4,70.3,63.4,59.2,60.3,55.5,48.0,89,76,58,29.26,29.20,4,0,4,0.00
2012-11-5,75.6,65.7,62.8,61.0,56.7,48.6,92,74,44,29.20,29.05,8,1,9,0.00
2012-11-6,69.3,67.0,61.5,60.8,55.4,49.1,91,67,54,29.17,29.02,8,2,10,0.00
2012-11-7,61.7,58.2,54.0,59.2,55.0,52.3,96,89,82,29.29,29.14,9,1,10,0.70
2012-11-8,61.9,56.3,53.6,54.7,45.1,37.4,98,68,42,29.31,29.26,15,3,16,0.20
2012-11-9,65.5,56.9,54.5,48.4,43.9,36.0,73,62,48,29.29,29.14,11,2,11,0.00
2012-11-10,57.2,55.2,53.1,51.6,46.7,41.2,89,74,58,29.37,29.17,8,1,10,0.21
2012-11-11,65.3,57.3,54.3,49.8,45.7,41.2,84,66,44,29.52,29.37,10,2,10,0.04
2012-11-12,65.8,57.1,53.8,48.6,45.3,41.7,72,65,44,29.52,29.46,6,1,6,0.00
2012-11-13,63.3,57.1,52.9,47.8,46.4,44.8,76,68,53,29.46,29.37,8,1,9,0.00
2012-11-14,60.4,57.4,54.7,46.8,43.1,40.6,68,59,50,29.46,29.40,13,2,13,0.00
2012-11-15,66.6,58.0,54.5,51.3,46.0,42.1,78,65,44,29.43,29.37,8,2,10,0.00
2012-11-16,63.0,56.9,54.9,49.1,47.3,43.5,80,71,51,29.43,29.40,13,3,13,0.00
2012-11-17,58.1,56.8,55.4,50.9,47.9,44.2,80,72,63,29.43,29.31,9,2,9,0.00
2012-11-18,64.9,58.1,56.1,53.8,51.1,49.3,83,78,61,29.34,29.29,10,2,10,0.00
2012-11-19,63.5,58.1,54.5,53.4,51.6,49.3,88,79,63,29.34,29.29,6,1,8,0.00
2012-11-20,65.1,58.2,55.8,52.9,51.0,48.2,85,77,59,29.34,29.31,10,2,11,0.00
2012-11-21,63.5,57.7,55.4,53.6,50.4,46.0,89,77,56,29.37,29.31,9,2,10,0.00
2012-11-22,56.7,54.7,53.1,53.6,50.2,45.3,97,85,73,29.40,29.34,12,2,12,0.25
2012-11-23,56.7,53.8,52.3,49.3,45.0,41.5,83,72,60,29.43,29.37,10,2,10,0.00
2012-11-24,55.8,52.2,48.6,48.9,46.2,41.5,94,81,60,29.43,29.34,9,1,9,0.20
2012-11-25,54.9,50.7,48.9,45.0,41.6,37.9,86,71,56,29.43,29.34,7,2,7,0.00
2012-11-26,58.3,51.4,48.7,43.0,40.8,39.2,74,67,52,29.40,29.29,6,1,6,0.00
2012-11-27,63.0,51.6,47.1,48.4,43.4,39.6,85,74,48,29.29,29.20,4,0,4,0.00
2012-11-28,61.0,56.8,50.7,47.7,45.2,42.1,86,66,53,29.20,29.05,7,1,11,0.00
2012-11-29,70.9,62.6,58.8,46.9,45.0,43.2,64,53,40,29.05,28.81,5,1,6,0.00
2012-11-30,67.3,64.4,61.0,55.0,47.6,42.6,81,56,44,28.87,28.75,5,1,6,0.04
2012-12-1,61.0,59.0,57.2,56.5,55.2,53.4,93,87,83,28.84,28.75,9,1,9,0.79
2012-12-2,64.8,61.1,58.1,57.6,54.3,46.2,94,79,54,28.81,28.31,6,0,8,0.04
2012-12-3,64.0,58.8,55.6,54.7,49.9,42.4,95,73,51,28.34,28.01,15,2,20,0.79
2012-12-4,56.3,44.1,41.0,48.2,39.7,33.6,94,85,72,28.34,27.99,15,3,17,1.20
2012-12-5,58.3,48.1,42.4,38.8,35.5,32.0,82,63,44,28.31,27.87,4,0,6,0.00
2012-12-6,50.7,47.4,44.4,46.4,42.5,37.0,97,84,61,28.01,27.87,9,2,10,0.79
2012-12-7,45.3,43.7,42.3,44.2,41.3,38.8,97,91,83,28.10,27.93,10,1,11,0.54
2012-12-8,57.0,46.1,41.7,40.3,35.3,28.9,88,68,46,28.10,27.87,6,1,6,0.00
2012-12-9,58.6,55.2,48.0,49.1,37.2,25.7,85,52,37,27.87,27.48,11,1,11,0.08
2012-12-10,52.2,46.2,42.3,48.0,43.4,37.6,96,90,81,27.54,27.42,9,1,11,0.70
2012-12-11,53.8,48.2,42.4,45.1,36.9,33.3,83,65,48,27.60,27.31,12,1,12,0.20
2012-12-12,51.4,46.4,40.6,47.1,29.8,18.0,87,55,36,27.66,27.34,8,2,8,0.08
2012-12-13,42.4,40.5,37.9,29.1,24.0,20.8,63,52,44,27.87,27.66,7,1,8,0.00
2012-12-14,37.9,37.9,37.8,21.9,21.8,21.7,52,52,52,27.87,27.84,0,0,3,0.00
2012-12-15,44.2,43.0,42.3,24.8,23.8,23.2,48,46,45,27.69,27.63,6,2,6,0.00
2012-12-16,47.8,45.5,42.4,41.9,32.7,24.1,82,61,49,27.66,27.36,5,0,6,0.00
2012-12-17,49.5,48.2,46.9,47.7,45.7,41.7,96,91,82,27.36,27.19,4,0,5,0.50
2012-12-18,52.0,49.4,46.9,46.2,44.5,42.3,95,83,71,27.28,26.98,11,3,13,0.04
2012-12-19,54.1,46.7,36.0,50.4,43.7,32.5,96,89,76,27.07,26.89,14,2,19,0.25
2012-12-20,36.0,33.2,32.0,33.1,31.3,28.8,98,93,88,27.28,27.07,17,4,20,0.00
2012-12-21,35.6,34.5,33.1,33.3,32.0,30.2,98,91,83,27.34,27.25,10,2,10,0.21
2012-12-22,37.9,35.8,33.4,36.1,31.2,28.2,94,83,78,27.39,27.16,10,2,11,0.29
2012-12-23,42.3,40.9,37.4,39.9,38.6,35.8,98,91,83,27.39,27.36,9,2,11,0.04
2012-12-24,52.0,43.5,40.6,37.2,33.6,29.8,83,69,48,0.00,40.00,8,2,9,0.00
2012-12-25,55.4,48.0,42.1,40.8,38.8,34.0,80,71,54,0.00,40.00,5,1,8,0.00
2012-12-26,61.0,50.8,46.6,45.0,41.6,36.7,85,72,49,0.00,40.00,8,1,8,0.00
2012-12-27,62.2,53.8,49.8,47.3,42.5,37.8,75,66,51,0.00,40.00,6,1,7,0.00
2012-12-28,64.2,56.3,53.4,47.8,44.0,42.1,69,63,50,0.00,40.00,3,0,4,0.00
2012-12-29,54.5,48.2,45.5,48.7,46.3,43.5,98,94,69,0.00,40.00,13,3,14,0.04
2012-12-30,49.1,46.6,45.3,46.0,42.5,37.8,98,86,67,0.00,40.00,12,3,12,0.04
2012-12-31,48.9,46.8,45.1,41.9,40.6,37.2,87,79,70,0.00,40.00,8,2,10,0.00
2013-1-1,48.9,46.0,43.3,38.3,36.4,34.9,76,69,60,0.00,40.00,6,1,6,0.00